Warning: Javascript must be enabled to use all the features on this page!


Page Loading - Please Wait...

* We've detected you're using a mobile device. Find our Next Generation Station Page here.
Click to hideNews Bulletins

Peak Streamflow for the Nation

USGS 06350000 CANNONBALL RIVER AT REGENT, ND

Hettinger County, North Dakota
Hydrologic Unit Code 10130204
Latitude  46°25'36", Longitude 102°33'05" NAD27
Drainage area 580  square miles
Gage datum 2,424.6 feet above NAVD88
Output formats
Table
Graph
Tab-separated file
peakfq (watstore) format
Reselect output format
Water
Year
Date Gage
Height
(feet)
Stream-
flow
(cfs)
1950 1950-04-16 26.10 20,300
1951 1951-03-22 10.051 1,300
1952 1952-04-07 15.77 5,420
1953 1953-06-15 14.07 4,230
1954 1954-04-06 9.59 1,690
1955 1955-06-29 8.27 1,170
1956 1956-08-28 5.932 453
1957 1957-06-22 17.35 6,040
1958 1958-03-26 8.701 800
1959 1959-03-21 10.38 1,910
1960 1960-03-22 8.00 9002
1961 1961-05-26 5.20 2702
1962 1962-08-09 9.65 1,600
1963 1963-06-07 7.69 899
1964 1964-06-18 13.49 3,830
1965 1965-05-27 9.53 1,630
1966 1966-06-25 14.63 4,620
1967 1967-05-09 11.61 2,830
1968 1968-02-27   1002
1969 1969-07-08 14.12 4,260
1970 1970-05-09 16.85 6,280
1971 1971-03-30 11.561 2,620
1972 1972-03-12 19.491 7,430
1973 1973-02-26 7.741 620
1974 1974-01-19 3.452 50.02
1975 1975-04-29 13.002 3,650
1976 1976-06-08 5.69 458
1977 1977-06-10 7.51 963
1978 1978-03-27 20.55 10,000
1979 1979-04-10 13.261 2,500
1980 1980-06-05 8.24 1,180
1981 1981-08-16 15.52 5,240
1982 1982-04-12 21.82 11,000
1983 1982-10-30 7.85 1,060
1984 1984-06-22 14.66 4,610
1985 1985-03-15 5.37 260
1986 1986-03-02 15.221 4,200
1987 1987-04-05 9.21 1,600
1988 1988-03-27 3.311 45.0
1989 1989-04-27 5.69 449
1990 1990-03-01 3.10 64.0
1991 1991-06-24 6.77 422
1992 1992-07-07 5.32 22.0
1993 1993-07-23 6.65 415
1994 1994-06-08 12.84 3,320
1995 1995-05-13 10.32 1,950
1996 1996-03-14 7.55 720
1997 1997-03-21 21.011 6,3902
1998 1998-06-19 10.62 2,060
1999 1999-02-28 10.535 1,5802
2000 2000-07-09 5.80 76.0
2001 2001-07-27 9.73 1,640
2002 2002-04-23 5.282 23.0
2003 2003-03-20 7.022 490
2004 2004-03-11   1,5002
2005 2005-07-01 8.28 1,030
2006 2006-03-31 8.07 938
2007 2007-06-09 8.41 1,080
2008 2008-07-29 4.91 5.60
2009 2009-04-15 18.382 7,510
2010 2010-04-01 10.96 2,200
2011 2011-04-03 14.102 4,130
2012 2012-03-18 2.062 29.0
2013 2013-06-02   1,1501,2
2014 2014-04-08 13.532 2,940
2015 2015-06-26 7.79 816
2016 2016-04-28 5.47 34.0
2017 2017-03-21 6.58 309
2018 2018-06-01 11.58 2,120
2019 2019-03-24 17.35 5,870
?
  Peak Gage-Height Qualification Codes.
?
  Peak Streamflow Qualification Codes.